Crete, Illinois
Current Conditions -  °F | °C
As of 10:15 PM on Friday 24 Oct 2014 (Local Time) from KIGQ Reporting Station
Overcast Overcast  
Wind Chill: 56°   Ceiling: 7000
Heat Index: 56°   Visibility: 10mi
Dew Point: 48°   Wind: 7mph
Humidity: 73%   Direction: 210°SSW
Pressure: 29.95"   Gusts: NA
Location:  41.44°N, 87.63°W
Report Text: KIGQ 250315Z AUTO 21006KT 10SM SCT060 BKN070 OVC095 13/09 A2995 RMK AO2 T01340087
Loading
Personal Weather Stations






























Interactive Weather Map
Tropical Storm Tracking
New forecast layout! Learn more

10-Day Weather Forecast

Advertisements
Track Severe Weather on mobile